KHZR

False River Regional Airport

New Roads, Louisiana, USA
METAR KHZR 240135Z AUTO 10005KT 10SM CLR 27/21 A3003 RMK AO2 LTG DSNT SE T02700210
Observed Flight Rules
May-24 @ 01:35 UTC (21 minutes ago) Visual Flight Rules
Wind Visibility Clouds
100° at 5 knots 10 miles
  • Clear skies
Temperatures Readings
Current 27°C / 81°F
Dewpoint 21°C / 70°F
Humidity 70%
Altimeter 30.03" Hg
Pressure 1017 hPa
Elevation 12
METAR KHZR 240135Z AUTO 10005KT 10SM CLR 27/21 A3003 RMK AO2 LTG DSNT SE T02700210
Observed Flight Rules
May-24 @ 01:35 UTC
(21 minutes ago)
VFR
Wind Visibility
100° at 5 knots 10 miles
Clouds
  • Clear skies
Temperature Dewpoint
27°C / 81°F 21°C / 70°F
Humidity Altimeter Pressure
70% 30.03" Hg 1017 hPa